createdAt,value
2022-12-11T00:00:54.585Z,22.83
2022-12-11T00:03:22.168Z,21.03
2022-12-11T00:05:49.992Z,20.30
2022-12-11T00:08:18.290Z,21.13
2022-12-11T00:10:50.423Z,21.57
2022-12-11T00:13:18.120Z,21.13
2022-12-11T00:15:45.596Z,22.87
2022-12-11T00:18:15.037Z,22.70
2022-12-11T00:20:43.051Z,22.43
2022-12-11T00:23:11.470Z,23.60
2022-12-11T00:25:46.395Z,22.03
2022-12-11T00:28:17.079Z,21.13
2022-12-11T00:30:44.974Z,22.40
2022-12-11T00:33:14.897Z,22.27
2022-12-11T00:35:45.010Z,21.77
2022-12-11T00:38:20.921Z,22.50
2022-12-11T00:40:49.636Z,21.23
2022-12-11T00:43:17.939Z,21.43
2022-12-11T00:45:47.563Z,21.90
2022-12-11T00:48:15.086Z,20.70
2022-12-11T00:50:43.285Z,19.03
2022-12-11T00:53:10.627Z,20.70
2022-12-11T00:55:40.366Z,21.33
2022-12-11T00:58:10.159Z,18.43
2022-12-11T01:00:38.511Z,19.57
2022-12-11T01:03:06.438Z,20.10
2022-12-11T01:05:34.769Z,20.47
2022-12-11T01:08:02.853Z,20.47
2022-12-11T01:10:31.126Z,20.53
2022-12-11T01:13:06.846Z,19.73
2022-12-11T01:15:41.646Z,19.13
2022-12-11T01:18:11.892Z,17.30
2022-12-11T01:20:43.495Z,17.23
2022-12-11T01:23:14.031Z,17.47
2022-12-11T01:25:43.483Z,17.83
2022-12-11T01:28:11.430Z,16.03
2022-12-11T01:30:42.153Z,16.80
2022-12-11T01:33:12.018Z,17.33
2022-12-11T01:35:40.789Z,18.30
2022-12-11T01:38:08.516Z,18.90
2022-12-11T01:40:35.939Z,19.80
2022-12-11T01:43:03.828Z,19.67
2022-12-11T01:45:33.432Z,20.07
2022-12-11T01:48:14.319Z,18.57
2022-12-11T01:50:47.678Z,20.07
2022-12-11T01:53:20.461Z,20.13
2022-12-11T01:55:49.909Z,20.67
2022-12-11T01:58:19.094Z,20.00
2022-12-11T02:00:46.786Z,19.43
2022-12-11T02:03:14.514Z,17.70
2022-12-11T02:05:42.454Z,18.17
2022-12-11T02:08:10.962Z,17.47
2022-12-11T02:11:09.208Z,17.90
2022-12-11T02:13:49.914Z,17.90
2022-12-11T02:16:35.081Z,16.10
2022-12-11T02:19:18.294Z,17.53
2022-12-11T02:21:50.872Z,18.13
2022-12-11T02:24:33.463Z,18.03
2022-12-11T02:27:14.430Z,17.80
2022-12-11T02:30:16.762Z,17.97
2022-12-11T02:32:50.482Z,17.40
2022-12-11T02:35:36.750Z,15.97
2022-12-11T02:38:09.076Z,16.30
2022-12-11T02:40:41.185Z,16.93
2022-12-11T02:43:12.550Z,16.67
2022-12-11T02:45:42.744Z,16.13
2022-12-11T02:48:11.910Z,16.70
2022-12-11T02:50:44.620Z,16.60
2022-12-11T02:53:16.809Z,16.60
2022-12-11T02:55:46.297Z,15.17
2022-12-11T02:58:20.400Z,15.77
2022-12-11T03:00:48.060Z,14.97
2022-12-11T03:03:16.868Z,15.07
2022-12-11T03:05:46.620Z,15.23
2022-12-11T03:08:18.838Z,14.83
2022-12-11T03:10:46.927Z,13.90
2022-12-11T03:13:20.311Z,13.97
2022-12-11T03:16:17.409Z,14.43
2022-12-11T03:18:59.312Z,13.93
2022-12-11T03:21:28.203Z,13.73
2022-12-11T03:24:20.103Z,13.60
2022-12-11T03:27:06.810Z,13.80
2022-12-11T03:29:40.476Z,13.40
2022-12-11T03:32:16.307Z,12.77
2022-12-11T03:34:49.626Z,13.30
2022-12-11T03:37:20.234Z,11.87
2022-12-11T03:39:58.357Z,12.10
2022-12-11T03:42:29.261Z,13.13
2022-12-11T03:44:59.143Z,12.20
2022-12-11T03:47:29.533Z,13.63
2022-12-11T03:49:58.877Z,11.77
2022-12-11T03:52:29.299Z,12.40
2022-12-11T03:55:01.207Z,12.43
2022-12-11T03:57:34.795Z,13.43
2022-12-11T04:00:05.232Z,11.97
2022-12-11T04:02:39.966Z,11.53
2022-12-11T04:05:08.403Z,11.93
2022-12-11T04:07:36.375Z,11.37
2022-12-11T04:10:05.941Z,12.77
2022-12-11T04:12:33.671Z,12.47
2022-12-11T04:15:03.952Z,11.63
2022-12-11T04:17:53.848Z,13.00
2022-12-11T04:20:41.958Z,11.23
2022-12-11T04:23:33.186Z,12.67
2022-12-11T04:26:09.307Z,11.63
2022-12-11T04:28:36.810Z,13.00
2022-12-11T04:31:04.975Z,11.93
2022-12-11T04:33:32.600Z,12.43
2022-12-11T04:36:01.334Z,13.80
2022-12-11T04:38:28.717Z,12.40
2022-12-11T04:41:10.880Z,13.43
2022-12-11T04:43:40.101Z,13.33
2022-12-11T04:46:22.007Z,12.97
2022-12-11T04:48:56.785Z,13.10
2022-12-11T04:51:25.299Z,13.90
2022-12-11T04:53:53.449Z,13.00
2022-12-11T04:56:21.421Z,12.13
2022-12-11T04:58:49.057Z,12.77
2022-12-11T05:01:22.664Z,13.77
2022-12-11T05:03:50.569Z,15.33
2022-12-11T05:06:18.396Z,13.23
2022-12-11T05:08:46.100Z,13.53
2022-12-11T05:11:15.590Z,12.83
2022-12-11T05:13:44.058Z,13.30
2022-12-11T05:16:14.210Z,12.50
2022-12-11T05:18:42.995Z,13.10
2022-12-11T05:21:13.089Z,11.90
2022-12-11T05:23:41.626Z,11.87
2022-12-11T05:26:13.348Z,13.70
2022-12-11T05:28:42.063Z,13.37
2022-12-11T05:31:15.220Z,13.90
2022-12-11T05:33:43.264Z,14.27
2022-12-11T05:36:17.496Z,12.93
2022-12-11T05:38:46.126Z,13.67
2022-12-11T05:41:17.173Z,12.73
2022-12-11T05:43:45.680Z,13.17
2022-12-11T05:46:19.927Z,13.80
2022-12-11T05:48:50.146Z,12.47
2022-12-11T05:51:19.101Z,14.50
2022-12-11T05:53:48.923Z,13.67
2022-12-11T05:56:25.161Z,13.60
2022-12-11T05:58:54.232Z,14.30
2022-12-11T06:01:27.603Z,14.60
2022-12-11T06:03:56.703Z,13.47
2022-12-11T06:06:24.992Z,13.17
2022-12-11T06:08:56.410Z,12.90
2022-12-11T06:11:25.815Z,12.70
2022-12-11T06:13:53.596Z,12.03
2022-12-11T06:16:22.492Z,12.97
2022-12-11T06:18:50.326Z,11.87
2022-12-11T06:21:25.184Z,11.07
2022-12-11T06:23:56.123Z,11.57
2022-12-11T06:26:24.080Z,12.47
2022-12-11T06:28:52.248Z,10.17
2022-12-11T06:31:20.458Z,11.40
2022-12-11T06:33:48.088Z,10.80
2022-12-11T06:36:18.811Z,9.77
2022-12-11T06:38:46.534Z,10.40
2022-12-11T06:41:15.606Z,9.47
2022-12-11T06:43:43.781Z,10.40
2022-12-11T06:46:14.201Z,10.37
2022-12-11T06:48:42.538Z,11.77
2022-12-11T06:51:12.919Z,10.10
2022-12-11T06:53:40.698Z,10.27
2022-12-11T06:56:13.105Z,9.73
2022-12-11T06:58:41.078Z,9.67
2022-12-11T07:01:26.675Z,8.33
2022-12-11T07:03:55.732Z,9.70
2022-12-11T07:06:24.332Z,9.07
2022-12-11T07:08:52.085Z,9.70
2022-12-11T07:11:21.316Z,9.67
2022-12-11T07:13:49.578Z,9.80
2022-12-11T07:16:18.650Z,9.97
2022-12-11T07:18:51.831Z,9.87
2022-12-11T07:21:20.712Z,10.07
2022-12-11T07:23:49.505Z,9.07
2022-12-11T07:26:20.223Z,10.27
2022-12-11T07:28:48.358Z,10.10
2022-12-11T07:31:20.146Z,9.10
2022-12-11T07:33:47.999Z,9.33
2022-12-11T07:36:16.431Z,8.93
2022-12-11T07:38:44.488Z,8.53
2022-12-11T07:41:14.437Z,9.57
2022-12-11T07:43:44.233Z,8.63
2022-12-11T07:46:15.157Z,8.37
2022-12-11T07:48:44.814Z,7.77
2022-12-11T07:51:17.571Z,8.70
2022-12-11T07:53:47.417Z,7.07
2022-12-11T07:56:15.764Z,8.30
2022-12-11T07:58:43.715Z,8.67
2022-12-11T08:01:23.267Z,8.77
2022-12-11T08:03:54.127Z,8.43
2022-12-11T08:06:27.052Z,7.33
2022-12-11T08:08:56.049Z,7.83
2022-12-11T08:11:23.996Z,6.73
2022-12-11T08:13:52.087Z,7.37
2022-12-11T08:16:21.800Z,7.60
2022-12-11T08:18:50.359Z,7.97
2022-12-11T08:21:21.320Z,9.10
2022-12-11T08:23:52.007Z,7.70
2022-12-11T08:26:23.336Z,8.80
2022-12-11T08:28:50.957Z,8.47
2022-12-11T08:31:19.259Z,8.27
2022-12-11T08:33:47.295Z,8.43
2022-12-11T08:36:16.963Z,8.67
2022-12-11T08:38:44.359Z,8.23
2022-12-11T08:41:16.682Z,7.80
2022-12-11T08:43:46.983Z,8.43
2022-12-11T08:46:15.951Z,8.30
2022-12-11T08:48:44.709Z,8.80
2022-12-11T08:51:15.043Z,8.27
2022-12-11T08:53:44.028Z,7.53
2022-12-11T08:56:19.701Z,6.67
2022-12-11T08:58:47.688Z,7.87
2022-12-11T09:01:18.211Z,7.50
2022-12-11T09:03:45.793Z,7.90
2022-12-11T09:06:16.692Z,8.40
2022-12-11T09:08:51.733Z,7.20
2022-12-11T09:11:23.164Z,8.37
2022-12-11T09:13:51.110Z,6.27
2022-12-11T09:16:22.429Z,7.37
2022-12-11T09:18:52.301Z,7.37
2022-12-11T09:21:22.535Z,7.00
2022-12-11T09:23:53.749Z,7.00
2022-12-11T09:26:21.937Z,6.40
2022-12-11T09:28:53.259Z,6.67
2022-12-11T09:31:39.112Z,6.83
2022-12-11T09:34:09.641Z,7.13
2022-12-11T09:36:39.144Z,8.40
2022-12-11T09:39:08.225Z,6.93
2022-12-11T09:41:55.751Z,6.67
2022-12-11T09:44:57.157Z,6.40
2022-12-11T09:47:36.774Z,6.27
2022-12-11T09:50:10.348Z,6.60
2022-12-11T09:53:00.533Z,6.60
2022-12-11T09:55:43.761Z,6.70
2022-12-11T09:58:21.484Z,7.20
2022-12-11T10:01:18.232Z,7.60
2022-12-11T10:04:00.968Z,6.03
2022-12-11T10:06:31.692Z,6.33
2022-12-11T10:09:11.041Z,6.47
2022-12-11T10:12:02.262Z,6.30
2022-12-11T10:14:45.427Z,5.93
2022-12-11T10:17:20.390Z,6.50
2022-12-11T10:19:49.561Z,6.50
2022-12-11T10:22:31.287Z,5.83
2022-12-11T10:25:11.332Z,6.07
2022-12-11T10:27:40.620Z,6.83
2022-12-11T10:30:32.948Z,6.10
2022-12-11T10:33:23.653Z,5.60
2022-12-11T10:35:59.493Z,6.43
2022-12-11T10:38:38.787Z,6.00
2022-12-11T10:41:33.536Z,5.53
2022-12-11T10:44:02.295Z,5.03
2022-12-11T10:46:33.629Z,5.23
2022-12-11T10:49:01.824Z,5.53
2022-12-11T10:51:32.511Z,5.67
2022-12-11T10:54:17.075Z,5.33
2022-12-11T10:56:48.615Z,5.83
2022-12-11T10:59:26.159Z,5.77
2022-12-11T11:01:54.647Z,5.93
2022-12-11T11:04:33.173Z,5.83
2022-12-11T11:07:19.410Z,5.47
2022-12-11T11:09:47.301Z,5.70
2022-12-11T11:12:28.472Z,5.30
2022-12-11T11:15:14.213Z,6.43
2022-12-11T11:17:55.756Z,6.40
2022-12-11T11:20:26.901Z,6.23
2022-12-11T11:23:00.496Z,6.37
2022-12-11T11:25:33.117Z,5.80
2022-12-11T11:28:06.417Z,6.60
2022-12-11T11:30:38.270Z,6.90
2022-12-11T11:33:16.185Z,7.10
2022-12-11T11:35:53.890Z,6.60
2022-12-11T11:38:38.973Z,6.43
2022-12-11T11:41:17.677Z,6.53
2022-12-11T11:43:52.226Z,6.37
2022-12-11T11:46:29.413Z,6.00
2022-12-11T11:49:17.722Z,6.53
2022-12-11T11:51:54.375Z,5.40
2022-12-11T11:54:24.674Z,5.50
2022-12-11T11:56:56.172Z,5.33
2022-12-11T11:59:43.269Z,6.20
2022-12-11T12:02:20.554Z,6.00
2022-12-11T12:04:51.733Z,5.13
2022-12-11T12:07:27.167Z,5.27
2022-12-11T12:10:16.605Z,5.30
2022-12-11T12:12:59.898Z,4.43
2022-12-11T12:15:39.835Z,5.97
2022-12-11T12:18:25.334Z,5.50
2022-12-11T12:21:27.208Z,4.93
2022-12-11T12:24:06.389Z,4.27
2022-12-11T12:26:37.626Z,4.93
2022-12-11T12:29:17.448Z,4.77
2022-12-11T12:31:47.991Z,5.00
2022-12-11T12:34:36.699Z,5.37
2022-12-11T12:37:06.900Z,4.77
2022-12-11T12:39:58.918Z,5.23
2022-12-11T12:42:29.319Z,5.97
2022-12-11T12:45:09.990Z,6.23
2022-12-11T12:47:39.292Z,5.97
2022-12-11T12:50:20.441Z,6.13
2022-12-11T12:52:49.143Z,6.80
2022-12-11T12:55:26.129Z,6.70
2022-12-11T12:58:01.156Z,6.10
2022-12-11T13:00:31.777Z,5.87
2022-12-11T13:03:03.169Z,6.30
2022-12-11T13:05:34.792Z,6.37
2022-12-11T13:08:04.997Z,5.93
2022-12-11T13:10:34.036Z,6.20
2022-12-11T13:13:03.815Z,6.30
2022-12-11T13:15:44.245Z,5.63
2022-12-11T13:18:35.975Z,5.67
2022-12-11T13:21:32.981Z,5.10
2022-12-11T13:24:33.764Z,5.63
2022-12-11T13:27:22.326Z,5.67
2022-12-11T13:29:50.079Z,5.73
2022-12-11T13:32:17.689Z,5.73
2022-12-11T13:34:56.479Z,6.33
2022-12-11T13:37:34.731Z,5.67
2022-12-11T13:40:06.725Z,5.33
2022-12-11T13:42:47.842Z,5.77
2022-12-11T13:45:29.902Z,5.40
2022-12-11T13:47:58.250Z,5.67
2022-12-11T13:50:29.743Z,5.37
2022-12-11T13:53:00.322Z,5.23
2022-12-11T13:55:31.153Z,4.97
2022-12-11T13:57:59.078Z,5.87
2022-12-11T14:00:30.497Z,7.20
2022-12-11T14:03:02.685Z,8.37
2022-12-11T14:05:30.503Z,7.67
2022-12-11T14:08:02.904Z,8.10
2022-12-11T14:10:33.367Z,9.13
2022-12-11T14:13:08.278Z,9.07
2022-12-11T14:15:39.275Z,10.03
2022-12-11T14:18:07.122Z,8.90
2022-12-11T14:20:36.320Z,10.20
2022-12-11T14:23:22.079Z,9.47
2022-12-11T14:25:55.383Z,9.97
2022-12-11T14:28:27.677Z,10.60
2022-12-11T14:30:59.667Z,9.87
2022-12-11T14:33:35.349Z,10.67
2022-12-11T14:36:04.240Z,10.37
2022-12-11T14:38:42.951Z,11.07
2022-12-11T14:41:15.733Z,9.77
2022-12-11T14:43:47.202Z,9.93
2022-12-11T14:46:22.938Z,8.07
2022-12-11T14:49:01.463Z,7.07
2022-12-11T14:51:39.256Z,7.10
2022-12-11T14:54:17.333Z,7.33
2022-12-11T14:56:47.852Z,7.60
2022-12-11T14:59:26.931Z,6.40
2022-12-11T15:02:03.917Z,6.50
2022-12-11T15:04:33.742Z,7.43
2022-12-11T15:07:01.298Z,6.43
2022-12-11T15:09:29.073Z,6.33
2022-12-11T15:11:59.480Z,7.13
2022-12-11T15:14:27.804Z,6.57
2022-12-11T15:16:58.046Z,6.23
2022-12-11T15:19:31.250Z,6.87
2022-12-11T15:22:08.274Z,6.50
2022-12-11T15:24:42.111Z,5.90
2022-12-11T15:27:33.038Z,6.10
2022-12-11T15:30:00.420Z,5.90
2022-12-11T15:32:31.278Z,6.73
2022-12-11T15:35:01.036Z,6.50
2022-12-11T15:37:37.069Z,6.37
2022-12-11T15:40:05.434Z,6.70
2022-12-11T15:42:40.227Z,6.13
2022-12-11T15:45:24.085Z,6.23
2022-12-11T15:47:52.898Z,7.80
2022-12-11T15:50:25.626Z,5.83
2022-12-11T15:52:54.374Z,6.33
2022-12-11T15:55:23.039Z,6.37
2022-12-11T15:57:56.548Z,6.80
2022-12-11T16:00:24.728Z,6.87
2022-12-11T16:02:52.298Z,7.23
2022-12-11T16:05:19.905Z,7.70
2022-12-11T16:07:48.113Z,8.40
2022-12-11T16:10:18.158Z,9.27
2022-12-11T16:12:46.647Z,8.77
2022-12-11T16:15:21.453Z,9.77
2022-12-11T16:17:50.671Z,10.07
2022-12-11T16:20:18.078Z,12.93
2022-12-11T16:22:45.533Z,10.53
2022-12-11T16:25:13.369Z,10.03
2022-12-11T16:27:41.065Z,10.67
2022-12-11T16:30:11.120Z,10.83
2022-12-11T16:32:38.515Z,11.77
2022-12-11T16:35:06.138Z,11.63
2022-12-11T16:37:33.693Z,10.87
2022-12-11T16:40:01.431Z,11.00
2022-12-11T16:42:28.970Z,12.83
2022-12-11T16:45:08.526Z,14.30
2022-12-11T16:47:36.334Z,13.37
2022-12-11T16:50:04.711Z,14.87
2022-12-11T16:52:33.359Z,12.87
2022-12-11T16:55:00.873Z,11.90
2022-12-11T16:57:28.501Z,11.70
2022-12-11T16:59:55.982Z,9.47
2022-12-11T17:02:23.488Z,13.97
2022-12-11T17:04:54.008Z,13.27
2022-12-11T17:07:21.683Z,15.30
2022-12-11T17:09:49.105Z,11.77
2022-12-11T17:12:16.544Z,12.27
2022-12-11T17:14:44.487Z,10.27
2022-12-11T17:17:11.822Z,10.43
2022-12-11T17:19:39.114Z,8.43
2022-12-11T17:22:06.448Z,10.03
2022-12-11T17:24:33.973Z,9.03
2022-12-11T17:27:01.643Z,10.13
2022-12-11T17:29:29.272Z,9.50
2022-12-11T17:31:58.815Z,11.53
2022-12-11T17:34:26.160Z,10.67
2022-12-11T17:36:53.637Z,11.40
2022-12-11T17:39:21.093Z,12.30
2022-12-11T17:41:48.529Z,11.80
2022-12-11T17:44:16.151Z,12.10
2022-12-11T17:46:44.867Z,16.43
2022-12-11T17:49:12.409Z,12.03
2022-12-11T17:51:39.933Z,14.20
2022-12-11T17:54:07.556Z,12.27
2022-12-11T17:56:39.011Z,14.17
2022-12-11T17:59:06.735Z,12.70
2022-12-11T18:01:34.645Z,12.23
2022-12-11T18:04:02.564Z,13.83
2022-12-11T18:06:30.610Z,14.63
2022-12-11T18:08:58.479Z,13.60
2022-12-11T18:11:26.084Z,13.07
2022-12-11T18:13:54.562Z,14.70
2022-12-11T18:16:30.284Z,14.10
2022-12-11T18:18:58.538Z,18.43
2022-12-11T18:21:29.940Z,14.60
2022-12-11T18:23:58.064Z,13.57
2022-12-11T18:26:26.763Z,13.70
2022-12-11T18:28:55.855Z,12.60
2022-12-11T18:31:25.052Z,14.00
2022-12-11T18:33:52.902Z,14.30
2022-12-11T18:36:21.710Z,14.77
2022-12-11T18:38:49.675Z,16.23
2022-12-11T18:41:18.236Z,14.83
2022-12-11T18:43:46.506Z,16.47
2022-12-11T18:46:16.958Z,17.53
2022-12-11T18:48:46.056Z,16.77
2022-12-11T18:51:17.275Z,17.40
2022-12-11T18:53:45.075Z,18.57
2022-12-11T18:56:16.068Z,18.77
2022-12-11T18:58:44.540Z,18.07
2022-12-11T19:01:24.259Z,18.37
2022-12-11T19:04:03.215Z,19.97
2022-12-11T19:06:33.359Z,19.20
2022-12-11T19:09:01.323Z,18.70
2022-12-11T19:11:30.718Z,20.00
2022-12-11T19:13:58.763Z,18.03
2022-12-11T19:16:35.893Z,19.40
2022-12-11T19:19:12.004Z,19.03
2022-12-11T19:21:41.015Z,18.70
2022-12-11T19:24:12.105Z,17.70
2022-12-11T19:26:39.441Z,19.43
2022-12-11T19:29:07.401Z,18.93
2022-12-11T19:31:35.208Z,18.70
2022-12-11T19:34:03.434Z,18.67
2022-12-11T19:36:31.839Z,18.30
2022-12-11T19:39:02.282Z,17.47
2022-12-11T19:41:31.484Z,17.83
2022-12-11T19:44:00.311Z,17.33
2022-12-11T19:46:28.827Z,17.27
2022-12-11T19:48:58.191Z,15.33
2022-12-11T19:51:31.903Z,15.97
2022-12-11T19:54:00.052Z,15.57
2022-12-11T19:56:27.543Z,15.47
2022-12-11T19:58:55.420Z,15.87
2022-12-11T20:01:26.186Z,15.70
2022-12-11T20:03:55.303Z,17.90
2022-12-11T20:06:24.069Z,27.07
2022-12-11T20:08:52.362Z,17.10
2022-12-11T20:11:20.234Z,16.67
2022-12-11T20:13:48.626Z,18.93
2022-12-11T20:16:22.086Z,18.60
2022-12-11T20:18:57.475Z,19.30
2022-12-11T20:21:25.126Z,21.23
2022-12-11T20:23:52.833Z,20.57
2022-12-11T20:26:24.795Z,21.17
2022-12-11T20:28:53.280Z,18.93
2022-12-11T20:31:23.816Z,15.33
2022-12-11T20:33:55.604Z,17.00
2022-12-11T20:36:24.422Z,18.07
2022-12-11T20:38:52.574Z,16.63
2022-12-11T20:41:22.428Z,15.30
2022-12-11T20:43:53.322Z,15.93
2022-12-11T20:46:24.985Z,13.07
2022-12-11T20:48:52.905Z,14.83
2022-12-11T20:51:26.052Z,14.47
2022-12-11T20:53:59.053Z,14.27
2022-12-11T20:56:31.992Z,13.27
2022-12-11T20:59:00.504Z,13.20
2022-12-11T21:01:31.286Z,13.00
2022-12-11T21:03:59.725Z,13.57
2022-12-11T21:06:32.529Z,13.67
2022-12-11T21:09:03.381Z,13.13
2022-12-11T21:11:30.897Z,13.63
2022-12-11T21:13:58.370Z,12.13
2022-12-11T21:16:26.171Z,13.53
2022-12-11T21:18:55.721Z,13.93
2022-12-11T21:21:23.834Z,14.03
2022-12-11T21:23:51.499Z,16.70
2022-12-11T21:26:19.346Z,15.30
2022-12-11T21:28:46.681Z,14.47
2022-12-11T21:31:17.251Z,13.87
2022-12-11T21:33:46.378Z,15.70
2022-12-11T21:36:15.333Z,13.57
2022-12-11T21:38:44.300Z,13.10
2022-12-11T21:41:21.341Z,13.10
2022-12-11T21:46:39.106Z,13.33
2022-12-11T21:49:08.462Z,12.20
2022-12-11T21:51:42.539Z,12.47
2022-12-11T21:54:15.861Z,12.47
2022-12-11T21:56:43.857Z,12.70
2022-12-11T21:59:11.663Z,11.70
2022-12-11T22:01:42.374Z,12.07
2022-12-11T22:04:11.421Z,12.20
2022-12-11T22:06:40.238Z,11.27
2022-12-11T22:09:07.913Z,11.47
2022-12-11T22:11:37.412Z,11.00
2022-12-11T22:14:07.003Z,13.40
2022-12-11T22:16:35.621Z,12.07
2022-12-11T22:19:06.109Z,11.63
2022-12-11T22:21:33.655Z,12.23
2022-12-11T22:24:01.593Z,11.30
2022-12-11T22:26:29.550Z,11.17
2022-12-11T22:28:57.235Z,11.83
2022-12-11T22:31:26.910Z,11.37
2022-12-11T22:33:55.193Z,11.10
2022-12-11T22:36:24.341Z,12.40
2022-12-11T22:38:52.457Z,12.47
2022-12-11T22:41:24.766Z,10.63
2022-12-11T22:43:52.735Z,11.97
2022-12-11T22:46:22.694Z,11.40
2022-12-11T22:48:51.852Z,11.83
2022-12-11T22:51:19.863Z,11.30
2022-12-11T22:53:47.829Z,12.63
2022-12-11T22:56:15.518Z,11.50
2022-12-11T22:58:43.272Z,11.90
2022-12-11T23:01:13.096Z,11.43
2022-12-11T23:03:40.750Z,12.20
2022-12-11T23:06:11.368Z,11.43
2022-12-11T23:08:40.057Z,11.30
2022-12-11T23:11:13.097Z,11.73
2022-12-11T23:13:42.271Z,11.93
2022-12-11T23:16:10.899Z,11.47
2022-12-11T23:18:39.668Z,11.10
2022-12-11T23:21:08.705Z,11.00
2022-12-11T23:23:36.556Z,11.50
2022-12-11T23:26:05.151Z,10.80
2022-12-11T23:28:32.613Z,10.60
2022-12-11T23:31:00.174Z,11.77
2022-12-11T23:33:27.670Z,10.77
2022-12-11T23:35:55.567Z,11.47
2022-12-11T23:38:23.758Z,12.27
2022-12-11T23:40:51.581Z,11.23
2022-12-11T23:43:19.517Z,11.93
2022-12-11T23:45:47.080Z,10.60
2022-12-11T23:48:14.739Z,11.20
2022-12-11T23:50:43.979Z,11.60
2022-12-11T23:53:11.935Z,11.73
2022-12-11T23:55:40.582Z,11.57
2022-12-11T23:58:08.972Z,11.50
